Time;durP1;ratioP1;P1;durP2;ratioP2;P2;SDS_P1;SDS_P2;PMS_P1;PMS_P2;Temp;Humidity;BMP_temperature;BMP_pressure;BME280_temperature;BME280_humidity;BME280_pressure;Samples;Min_cycle;Max_cycle;Signal;HPM_P1;HPM_P2
2021/04/18 00:01:13;;;;;;;31.90;15.90;;;7.00;97.30;;;;;;5037384;28;20184;-86
2021/04/18 00:03:38;;;;;;;28.10;15.97;;;7.00;97.30;;;;;;5038947;28;20196;-86
2021/04/18 00:06:04;;;;;;;32.77;15.80;;;7.00;97.30;;;;;;5039595;28;20547;-85
2021/04/18 00:08:30;;;;;;;32.20;16.23;;;7.00;97.30;;;;;;5040024;28;20195;-86
2021/04/18 00:10:55;;;;;;;28.83;15.63;;;7.00;97.30;;;;;;5058159;28;20230;-85
2021/04/18 00:15:52;;;;;;;33.03;15.37;;;7.00;97.30;;;;;;5051685;28;20208;-85
2021/04/18 00:18:21;;;;;;;27.53;14.97;;;7.10;97.30;;;;;;5039415;28;21235;-85
2021/04/18 00:20:46;;;;;;;34.23;16.53;;;7.10;97.30;;;;;;5039490;28;20469;-86
2021/04/18 00:23:14;;;;;;;33.07;15.60;;;7.10;97.30;;;;;;5039218;28;20425;-84
2021/04/18 00:25:40;;;;;;;30.00;15.00;;;7.10;97.30;;;;;;5018296;28;20184;-85
2021/04/18 00:28:05;;;;;;;28.00;15.37;;;7.10;97.30;;;;;;5018398;28;20423;-86
2021/04/18 00:30:31;;;;;;;28.97;14.50;;;7.10;97.30;;;;;;5018642;28;20184;-85
2021/04/18 00:32:57;;;;;;;34.10;14.70;;;7.10;97.30;;;;;;5018916;28;20760;-84
2021/04/18 00:35:22;;;;;;;28.93;14.53;;;7.10;97.30;;;;;;5019067;28;20196;-85
2021/04/18 00:37:48;;;;;;;32.90;16.07;;;7.10;97.30;;;;;;5018820;28;20183;-85
2021/04/18 00:40:21;;;;;;;31.33;16.13;;;7.10;97.30;;;;;;5019007;28;20188;-86
2021/04/18 00:42:47;;;;;;;33.43;15.63;;;7.10;97.30;;;;;;5018551;28;20534;-86
2021/04/18 00:45:13;;;;;;;28.70;16.37;;;7.10;97.30;;;;;;5017626;28;20474;-86
2021/04/18 00:47:47;;;;;;;29.47;16.13;;;7.10;97.30;;;;;;5035473;28;20447;-86
2021/04/18 00:50:15;;;;;;;34.67;15.33;;;7.10;97.30;;;;;;5017406;28;20465;-84
2021/04/18 00:52:40;;;;;;;34.63;16.63;;;7.00;97.30;;;;;;5035843;28;20422;-86
2021/04/18 00:55:08;;;;;;;36.90;16.83;;;7.00;97.30;;;;;;5018238;28;20435;-86
2021/04/18 00:57:33;;;;;;;33.70;16.50;;;7.00;97.30;;;;;;5018517;28;20671;-86
2021/04/18 01:00:00;;;;;;;32.70;16.93;;;6.90;97.30;;;;;;5017766;28;20427;-86
2021/04/18 01:02:27;;;;;;;33.87;16.50;;;6.90;97.30;;;;;;5017918;28;20266;-86
2021/04/18 01:04:52;;;;;;;40.63;17.07;;;7.00;97.30;;;;;;5018125;28;20439;-86
2021/04/18 01:07:18;;;;;;;35.10;17.37;;;7.00;97.30;;;;;;5018465;28;20419;-86
2021/04/18 01:09:44;;;;;;;35.53;16.97;;;7.00;97.30;;;;;;5019102;28;20215;-86
2021/04/18 01:12:10;;;;;;;40.47;17.87;;;7.00;97.30;;;;;;5019111;28;20181;-86
2021/04/18 01:14:35;;;;;;;38.33;17.27;;;7.00;97.30;;;;;;5019371;28;20807;-86
2021/04/18 01:17:01;;;;;;;31.50;16.70;;;7.00;97.30;;;;;;5018982;28;20242;-86
2021/04/18 01:19:27;;;;;;;40.17;18.93;;;7.00;97.30;;;;;;5019001;28;20180;-86
2021/04/18 01:21:52;;;;;;;35.37;16.90;;;7.00;97.30;;;;;;5018927;28;20188;-85
2021/04/18 01:24:18;;;;;;;42.13;17.83;;;7.00;97.30;;;;;;5019312;28;20197;-86
2021/04/18 01:26:45;;;;;;;34.00;17.20;;;6.90;97.30;;;;;;5018175;28;20708;-86
2021/04/18 01:29:11;;;;;;;43.13;18.70;;;7.00;97.30;;;;;;5018426;28;20206;-86
2021/04/18 01:31:36;;;;;;;36.57;17.17;;;6.90;97.30;;;;;;5017932;28;20419;-86
2021/04/18 01:37:51;;;;;;;45.40;19.87;;;7.00;97.30;;;;;;4974618;28;20895;-86
2021/04/18 01:40:19;;;;;;;34.23;17.10;;;7.10;97.30;;;;;;4958496;28;20509;-85
2021/04/18 01:42:46;;;;;;;29.13;16.20;;;7.10;97.30;;;;;;4958100;28;20426;-85
2021/04/18 01:45:26;;;;;;;34.40;17.23;;;7.10;97.30;;;;;;4957719;28;20525;-86
2021/04/18 01:47:57;;;;;;;30.83;17.00;;;7.10;97.30;;;;;;4953756;29;20466;-85
2021/04/18 02:06:32;;;;;;;34.80;17.70;;;7.10;97.30;;;;;;5072711;23;20485;-86
2021/04/18 02:12:50;;;;;;;34.77;17.30;;;7.20;97.30;;;;;;4917621;29;20486;-86
2021/04/18 02:15:16;;;;;;;30.43;16.90;;;7.20;97.30;;;;;;4958675;28;20481;-86
2021/04/18 02:17:42;;;;;;;31.57;16.87;;;7.20;97.30;;;;;;5006898;28;20940;-86
2021/04/18 02:20:09;;;;;;;34.57;17.70;;;7.20;97.30;;;;;;5035903;28;20411;-86
2021/04/18 02:22:35;;;;;;;31.17;16.57;;;7.20;97.30;;;;;;5017586;28;20216;-86
2021/04/18 02:25:01;;;;;;;36.73;17.77;;;7.20;97.30;;;;;;5035801;28;20430;-85
2021/04/18 02:27:27;;;;;;;30.47;17.50;;;7.10;97.30;;;;;;5017949;28;20418;-85
2021/04/18 02:29:54;;;;;;;28.77;17.23;;;7.10;97.30;;;;;;5035322;28;20545;-85
2021/04/18 02:32:20;;;;;;;36.40;17.70;;;7.10;97.30;;;;;;5026768;28;20431;-86
2021/04/18 02:34:46;;;;;;;35.70;17.63;;;7.10;97.30;;;;;;5041267;28;20435;-87
2021/04/18 02:37:12;;;;;;;34.27;17.00;;;7.10;97.30;;;;;;5040908;28;20443;-87
2021/04/18 02:39:38;;;;;;;32.10;16.80;;;7.10;97.30;;;;;;5036723;28;20427;-85
2021/04/18 02:42:04;;;;;;;28.87;16.80;;;7.10;97.30;;;;;;5036373;28;20198;-86
2021/04/18 02:44:29;;;;;;;30.77;16.77;;;7.10;97.30;;;;;;5054019;28;20192;-86
2021/04/18 02:46:55;;;;;;;33.83;17.73;;;7.10;97.30;;;;;;5052505;28;20457;-85
2021/04/18 02:49:21;;;;;;;36.50;17.77;;;7.10;97.30;;;;;;5052421;28;20245;-86
2021/04/18 02:51:47;;;;;;;33.20;17.70;;;7.10;97.30;;;;;;5052597;28;20484;-85
2021/04/18 02:54:15;;;;;;;42.60;18.70;;;7.10;97.30;;;;;;5052974;28;20191;-85
2021/04/18 02:56:40;;;;;;;32.63;17.07;;;7.10;97.30;;;;;;5052967;28;20171;-86
2021/04/18 02:59:06;;;;;;;39.33;15.80;;;7.10;97.30;;;;;;5054090;28;20418;-86
2021/04/18 03:01:32;;;;;;;33.70;16.80;;;7.10;97.30;;;;;;5052488;28;20697;-85
2021/04/18 03:03:58;;;;;;;33.63;16.80;;;7.10;97.30;;;;;;5053141;28;20478;-85
2021/04/18 03:06:23;;;;;;;31.00;17.23;;;7.10;97.30;;;;;;5053046;28;20215;-86
2021/04/18 03:08:49;;;;;;;34.43;17.50;;;7.10;97.30;;;;;;5052601;28;20200;-85
2021/04/18 03:11:17;;;;;;;35.53;18.73;;;7.10;97.30;;;;;;5042912;28;20230;-85
2021/04/18 03:13:42;;;;;;;32.57;17.97;;;7.10;97.30;;;;;;5017392;28;20200;-86
2021/04/18 03:16:08;;;;;;;30.70;16.80;;;7.10;97.30;;;;;;5017855;28;20422;-86
2021/04/18 03:18:33;;;;;;;34.47;18.93;;;7.10;97.30;;;;;;5017405;28;20184;-85
2021/04/18 03:20:59;;;;;;;31.87;18.40;;;7.10;97.30;;;;;;5017280;28;20180;-86
2021/04/18 03:23:25;;;;;;;33.40;18.23;;;7.10;97.30;;;;;;5017097;28;20187;-86
2021/04/18 03:25:50;;;;;;;39.40;18.60;;;7.00;97.30;;;;;;5034743;28;20184;-86
2021/04/18 03:28:16;;;;;;;31.23;18.30;;;7.00;97.30;;;;;;5016289;28;20180;-86
2021/04/18 03:30:42;;;;;;;41.77;21.03;;;6.90;97.30;;;;;;5021459;28;20190;-85
2021/04/18 03:33:08;;;;;;;36.87;19.40;;;6.90;97.30;;;;;;5053415;28;20744;-85
2021/04/18 03:35:34;;;;;;;37.20;20.60;;;6.90;97.30;;;;;;5056220;28;20457;-85
2021/04/18 03:38:00;;;;;;;36.67;19.17;;;6.90;97.30;;;;;;5056268;28;20429;-85
2021/04/18 03:40:26;;;;;;;39.27;20.03;;;6.90;97.30;;;;;;5052836;28;20188;-86
2021/04/18 03:42:52;;;;;;;33.93;18.73;;;6.90;97.30;;;;;;5019917;28;20429;-86
2021/04/18 03:45:21;;;;;;;37.00;18.40;;;6.90;97.30;;;;;;5088046;23;20227;-86
2021/04/18 03:47:50;;;;;;;31.53;17.87;;;6.90;97.30;;;;;;5058070;28;20180;-86
2021/04/18 03:50:54;;;;;;;33.00;17.10;;;6.90;97.30;;;;;;5056327;28;20448;-87
2021/04/18 03:53:28;;;;;;;37.60;17.60;;;6.80;97.30;;;;;;5055926;28;20471;-87
2021/04/18 03:55:56;;;;;;;32.90;16.83;;;6.80;97.30;;;;;;5056064;28;20429;-86
2021/04/18 03:58:51;;;;;;;29.87;16.10;;;6.80;97.30;;;;;;5034857;28;20779;-87
2021/04/18 04:01:19;;;;;;;36.37;17.20;;;6.70;97.30;;;;;;5028533;28;20929;-88
2021/04/18 04:03:55;;;;;;;33.93;17.23;;;6.70;97.30;;;;;;5038046;28;20456;-86
2021/04/18 04:06:35;;;;;;;35.33;17.30;;;6.60;97.30;;;;;;5035222;28;20414;-86
2021/04/18 04:09:06;;;;;;;28.80;17.20;;;6.50;97.30;;;;;;5037200;28;20451;-86
2021/04/18 04:11:31;;;;;;;31.47;17.60;;;6.40;97.30;;;;;;5038891;28;20787;-84
2021/04/18 04:14:06;;;;;;;29.83;16.03;;;6.40;97.30;;;;;;5057057;28;20406;-86
2021/04/18 04:16:31;;;;;;;28.50;16.50;;;6.40;97.30;;;;;;5039348;28;20159;-87
2021/04/18 04:19:05;;;;;;;29.13;15.53;;;6.30;97.30;;;;;;5039607;28;20414;-85
2021/04/18 04:21:30;;;;;;;32.67;14.73;;;6.20;97.30;;;;;;5039225;28;20186;-87
2021/04/18 04:27:19;;;;;;;25.53;14.10;;;6.10;97.30;;;;;;5056875;28;20175;-87
2021/04/18 04:29:57;;;;;;;25.80;13.70;;;6.00;97.30;;;;;;5037622;28;20548;-86
2021/04/18 04:32:30;;;;;;;19.90;13.00;;;5.90;97.30;;;;;;5038100;28;20414;-87
2021/04/18 04:35:02;;;;;;;24.97;13.07;;;5.90;97.30;;;;;;5038073;28;20430;-86
2021/04/18 04:37:35;;;;;;;136.73;19.50;;;5.80;97.30;;;;;;5038103;28;20417;-87
2021/04/18 04:40:10;;;;;;;24.00;12.60;;;5.80;97.30;;;;;;5038156;28;20812;-87
2021/04/18 04:42:42;;;;;;;25.43;13.50;;;5.80;97.30;;;;;;5037974;28;20520;-87
2021/04/18 04:45:11;;;;;;;21.80;11.37;;;5.70;97.30;;;;;;5055176;28;20497;-86
2021/04/18 04:47:37;;;;;;;22.27;12.20;;;5.70;97.30;;;;;;5053747;28;20411;-86
2021/04/18 04:50:27;;;;;;;21.50;12.97;;;5.70;97.30;;;;;;5036877;28;20880;-87
2021/04/18 04:52:54;;;;;;;20.10;11.77;;;5.70;97.30;;;;;;5036571;28;20168;-86
2021/04/18 04:55:49;;;;;;;95.37;15.47;;;5.70;97.30;;;;;;5054578;28;20505;-85
2021/04/18 05:01:25;;;;;;;72.47;14.83;;;5.60;97.30;;;;;;5021718;28;20446;-87
2021/04/18 05:04:52;;;;;;;;;;;;;;;;;;;;;
2021/04/18 05:08:15;;;;;;;24.17;13.30;;;5.70;97.30;;;;;;5073522;28;20400;-86
2021/04/18 05:10:46;;;;;;;30.27;14.90;;;5.70;97.30;;;;;;5047278;28;20810;-84
2021/04/18 05:13:43;;;;;;;28.60;16.40;;;5.80;97.30;;;;;;5055499;28;20418;-87
2021/04/18 05:16:59;;;;;;;37.17;17.10;;;5.90;97.30;;;;;;5043546;28;20425;-87
2021/04/18 05:26:06;;;;;;;50.03;20.63;;;6.10;97.30;;;;;;5046391;23;20598;-74
2021/04/18 05:28:32;;;;;;;55.53;24.30;;;6.20;97.30;;;;;;5023192;23;20483;-74
2021/04/18 05:30:58;;;;;;;47.70;21.60;;;6.30;97.30;;;;;;5011351;28;20850;-74
2021/04/18 05:33:24;;;;;;;46.57;22.63;;;6.40;97.30;;;;;;5013087;28;20168;-74
2021/04/18 05:35:50;;;;;;;58.60;24.60;;;6.40;97.30;;;;;;5011137;28;20475;-74
2021/04/18 05:38:17;;;;;;;57.63;25.70;;;6.40;97.30;;;;;;5010680;28;20817;-74
2021/04/18 05:40:42;;;;;;;54.73;23.23;;;6.40;97.30;;;;;;5011047;28;20420;-74
2021/04/18 05:43:09;;;;;;;58.53;24.57;;;6.40;97.30;;;;;;5009763;28;20411;-74
2021/04/18 05:45:37;;;;;;;55.70;22.23;;;6.50;97.30;;;;;;5009749;28;20197;-76
2021/04/18 05:48:03;;;;;;;53.87;22.37;;;6.50;97.30;;;;;;5010218;28;20436;-75
2021/04/18 05:50:28;;;;;;;47.60;21.47;;;6.50;97.30;;;;;;5010173;28;20513;-75
2021/04/18 05:52:56;;;;;;;42.60;20.40;;;6.50;97.30;;;;;;5011577;28;20904;-75
2021/04/18 05:55:22;;;;;;;39.23;18.20;;;6.50;97.30;;;;;;5009233;28;20174;-75
2021/04/18 05:57:48;;;;;;;47.60;19.60;;;6.60;97.30;;;;;;5009583;28;20961;-74
2021/04/18 06:00:14;;;;;;;57.63;18.07;;;6.60;97.30;;;;;;5010414;28;20169;-76
2021/04/18 06:02:40;;;;;;;65.97;17.97;;;6.60;97.30;;;;;;5010413;28;20173;-75
2021/04/18 06:05:06;;;;;;;40.33;18.40;;;6.60;97.30;;;;;;5009074;28;20431;-74
2021/04/18 06:07:31;;;;;;;44.10;18.10;;;6.60;97.30;;;;;;5010802;28;20260;-74
2021/04/18 06:09:57;;;;;;;62.03;19.13;;;6.60;97.30;;;;;;5009651;28;20539;-76
2021/04/18 06:12:23;;;;;;;43.20;19.90;;;6.60;97.30;;;;;;5009501;28;20197;-78
2021/04/18 06:14:48;;;;;;;45.07;19.87;;;6.70;97.30;;;;;;5009725;28;20184;-75
2021/04/18 06:17:15;;;;;;;64.83;21.83;;;6.70;97.30;;;;;;5009755;28;20617;-74
2021/04/18 06:19:41;;;;;;;57.73;23.43;;;6.80;97.30;;;;;;5009967;28;20181;-74
2021/04/18 06:22:07;;;;;;;67.77;24.57;;;6.80;97.30;;;;;;5008748;28;21224;-74
2021/04/18 06:24:33;;;;;;;54.67;23.07;;;6.80;97.30;;;;;;5009911;28;20427;-75
2021/04/18 06:26:59;;;;;;;49.57;22.60;;;6.80;97.30;;;;;;5011509;28;20420;-74
2021/04/18 06:29:28;;;;;;;55.17;22.23;;;6.90;97.30;;;;;;5011529;28;20232;-75
2021/04/18 06:31:54;;;;;;;59.90;25.13;;;7.00;97.30;;;;;;5009978;28;20424;-74
2021/04/18 06:34:23;;;;;;;47.30;22.77;;;7.00;97.30;;;;;;5011530;28;20415;-75
2021/04/18 06:36:53;;;;;;;56.67;22.20;;;7.10;97.30;;;;;;5011611;28;20455;-73
2021/04/18 06:39:19;;;;;;;55.87;21.20;;;7.10;97.30;;;;;;4998420;28;20413;-74
2021/04/18 06:41:52;;;;;;;51.43;21.90;;;7.10;97.30;;;;;;5009261;28;20439;-74
2021/04/18 06:44:19;;;;;;;56.27;23.73;;;7.20;97.30;;;;;;5007401;28;20435;-73
2021/04/18 06:46:48;;;;;;;56.47;22.77;;;7.30;97.30;;;;;;5008606;28;20413;-75
2021/04/18 06:49:14;;;;;;;58.63;23.97;;;7.40;97.30;;;;;;5009510;28;20801;-73
2021/04/18 06:51:40;;;;;;;57.33;23.33;;;7.50;97.30;;;;;;5008259;28;20478;-75
2021/04/18 06:54:07;;;;;;;53.97;22.50;;;7.50;97.30;;;;;;5008404;28;20416;-75
2021/04/18 06:56:33;;;;;;;53.73;23.27;;;7.60;97.30;;;;;;5008256;28;20435;-74
2021/04/18 06:59:00;;;;;;;53.73;22.43;;;7.60;97.30;;;;;;5009090;28;20803;-73
2021/04/18 07:01:26;;;;;;;52.57;22.50;;;7.70;97.30;;;;;;5008893;28;20447;-74
2021/04/18 07:04:15;;;;;;;45.50;21.07;;;7.70;97.30;;;;;;5009118;28;20428;-73
2021/04/18 07:06:48;;;;;;;48.40;22.27;;;7.80;97.30;;;;;;5008627;28;20408;-74
2021/04/18 07:09:15;;;;;;;49.00;18.20;;;7.90;97.30;;;;;;5010592;28;20486;-74
2021/04/18 07:11:47;;;;;;;49.33;20.97;;;8.00;97.30;;;;;;5013694;28;20459;-75
2021/04/18 07:14:33;;;;;;;54.60;20.93;;;8.00;97.30;;;;;;5014479;28;20502;-75
2021/04/18 07:17:09;;;;;;;51.63;20.73;;;8.10;97.30;;;;;;5013271;28;20420;-75
2021/04/18 07:19:36;;;;;;;52.57;21.43;;;8.10;97.30;;;;;;5013132;28;20416;-75
2021/04/18 07:22:02;;;;;;;53.20;21.10;;;8.00;97.30;;;;;;5014708;28;20509;-75
2021/04/18 07:24:29;;;;;;;49.70;21.90;;;8.00;97.30;;;;;;5013105;28;20424;-75
2021/04/18 07:27:01;;;;;;;56.17;24.50;;;8.10;97.30;;;;;;5014143;28;20503;-74
2021/04/18 07:29:29;;;;;;;55.57;23.30;;;8.10;97.30;;;;;;5010389;28;20566;-74
2021/04/18 07:31:58;;;;;;;51.00;21.50;;;8.00;97.30;;;;;;5012710;28;20435;-74
2021/04/18 07:34:25;;;;;;;43.50;19.20;;;8.10;97.30;;;;;;5013653;28;21021;-73
2021/04/18 07:37:09;;;;;;;44.37;19.90;;;8.10;97.30;;;;;;5014594;28;20400;-75
2021/04/18 07:39:53;;;;;;;50.40;21.60;;;8.10;97.30;;;;;;5012930;28;20453;-75
2021/04/18 07:42:32;;;;;;;47.23;19.47;;;8.10;97.30;;;;;;5013084;28;20471;-72
2021/04/18 07:45:00;;;;;;;45.73;20.57;;;8.10;97.30;;;;;;5013667;28;20423;-73
2021/04/18 07:47:28;;;;;;;50.60;20.80;;;8.10;97.30;;;;;;5013190;28;20474;-73
2021/04/18 07:49:56;;;;;;;49.60;21.20;;;8.10;97.30;;;;;;5014756;28;20490;-73
2021/04/18 07:52:26;;;;;;;43.80;19.57;;;8.10;97.30;;;;;;5014692;28;20959;-72
2021/04/18 07:54:57;;;;;;;51.00;19.33;;;8.20;97.30;;;;;;5014436;28;20412;-72
2021/04/18 07:57:23;;;;;;;43.53;17.97;;;8.20;97.30;;;;;;5013567;28;20981;-72
2021/04/18 07:59:49;;;;;;;45.57;21.50;;;8.10;97.30;;;;;;5013346;28;20412;-71
2021/04/18 08:02:17;;;;;;;41.80;18.77;;;8.10;97.30;;;;;;5013460;28;20527;-73
2021/04/18 08:04:55;;;;;;;38.70;19.27;;;8.10;97.30;;;;;;5013244;28;20423;-73
2021/04/18 08:07:23;;;;;;;38.13;18.37;;;8.10;97.30;;;;;;5013419;28;20985;-72
2021/04/18 08:10:09;;;;;;;42.30;17.83;;;8.20;97.30;;;;;;5013164;28;20890;-72
2021/04/18 08:12:35;;;;;;;41.03;18.70;;;8.20;97.30;;;;;;4994777;28;20463;-71
2021/04/18 08:15:14;;;;;;;39.23;19.80;;;8.30;97.30;;;;;;5010690;28;20849;-72
2021/04/18 08:18:16;;;;;;;45.30;21.63;;;8.40;97.30;;;;;;5012809;28;20173;-72
2021/04/18 08:20:45;;;;;;;46.73;20.70;;;8.30;97.30;;;;;;5007105;28;20436;-72
2021/04/18 08:23:17;;;;;;;45.20;21.50;;;8.30;97.30;;;;;;5012447;28;20452;-72
2021/04/18 08:26:04;;;;;;;47.23;21.30;;;8.40;97.30;;;;;;5012921;28;20416;-73
2021/04/18 08:28:31;;;;;;;57.23;22.40;;;8.40;97.30;;;;;;5010015;28;20490;-72
2021/04/18 08:31:08;;;;;;;47.17;20.93;;;8.40;97.30;;;;;;5011945;28;20443;-72
2021/04/18 08:33:40;;;;;;;45.10;21.30;;;8.40;97.30;;;;;;5012154;28;20506;-72
2021/04/18 08:36:11;;;;;;;48.87;21.23;;;8.40;97.30;;;;;;5012491;28;20422;-73
2021/04/18 08:38:37;;;;;;;53.17;22.67;;;8.40;97.30;;;;;;5012613;28;20424;-73
2021/04/18 08:41:04;;;;;;;47.03;21.83;;;8.50;97.30;;;;;;5005603;28;20449;-73
2021/04/18 08:43:30;;;;;;;52.70;22.70;;;8.50;97.30;;;;;;4994190;28;20213;-73
2021/04/18 08:45:56;;;;;;;52.87;23.20;;;8.50;97.30;;;;;;4993664;28;20461;-73
2021/04/18 08:48:22;;;;;;;54.80;23.40;;;8.50;97.30;;;;;;5009243;28;20239;-73
2021/04/18 08:50:56;;;;;;;55.97;23.80;;;8.40;97.30;;;;;;5013115;28;20701;-73
2021/04/18 08:53:22;;;;;;;56.63;23.37;;;8.40;97.30;;;;;;5011537;28;20467;-74
2021/04/18 08:55:58;;;;;;;55.50;23.70;;;8.30;97.30;;;;;;5012681;28;20444;-72
2021/04/18 08:58:32;;;;;;;69.60;26.23;;;8.30;97.30;;;;;;5009225;28;20428;-73
2021/04/18 09:01:05;;;;;;;54.40;24.37;;;8.40;97.30;;;;;;5003748;28;20457;-72
2021/04/18 09:03:31;;;;;;;60.23;25.00;;;8.40;97.30;;;;;;4992930;28;20452;-72
2021/04/18 09:06:27;;;;;;;63.43;26.23;;;8.40;97.30;;;;;;4993471;28;20856;-72
2021/04/18 09:08:54;;;;;;;60.70;25.40;;;8.40;97.30;;;;;;5008533;28;20213;-72
2021/04/18 09:11:20;;;;;;;58.77;23.97;;;8.50;97.30;;;;;;4992460;28;20472;-73
2021/04/18 09:14:00;;;;;;;57.43;25.97;;;8.50;97.30;;;;;;4991885;28;20421;-72
2021/04/18 09:16:31;;;;;;;53.90;24.43;;;8.50;97.30;;;;;;4996995;28;20443;-73
2021/04/18 09:19:29;;;;;;;64.33;25.67;;;8.50;97.30;;;;;;5011757;28;20424;-74
2021/04/18 09:22:18;;;;;;;61.97;25.23;;;8.50;97.30;;;;;;5010901;28;20500;-73
2021/04/18 09:24:45;;;;;;;61.03;25.40;;;8.50;97.30;;;;;;5012167;28;20974;-73
2021/04/18 09:27:17;;;;;;;54.87;25.03;;;8.50;97.30;;;;;;5008281;28;20440;-73
2021/04/18 09:29:54;;;;;;;67.93;27.03;;;8.50;97.30;;;;;;5017830;28;20977;-74
2021/04/18 09:32:25;;;;;;;74.43;29.30;;;8.60;97.30;;;;;;5017558;28;20853;-73
2021/04/18 09:34:52;;;;;;;63.13;25.77;;;8.60;97.30;;;;;;5014755;28;20412;-73
2021/04/18 09:37:39;;;;;;;67.67;27.57;;;8.60;97.30;;;;;;5031838;28;20906;-73
2021/04/18 09:40:16;;;;;;;57.70;25.33;;;8.60;97.30;;;;;;5002037;28;20490;-73
2021/04/18 09:42:46;;;;;;;63.97;26.37;;;8.60;97.30;;;;;;5010179;28;20415;-73
2021/04/18 09:47:48;;;;;;;63.97;28.13;;;8.60;97.30;;;;;;5048879;28;20518;-74
2021/04/18 09:50:31;;;;;;;63.10;25.43;;;8.70;97.30;;;;;;5013245;28;20520;-74
2021/04/18 09:53:15;;;;;;;67.77;28.17;;;8.80;97.30;;;;;;4994200;28;20451;-74
2021/04/18 09:55:57;;;;;;;62.97;26.50;;;8.80;97.30;;;;;;5029373;28;20806;-73
2021/04/18 09:58:32;;;;;;;64.37;24.30;;;8.90;97.30;;;;;;5010024;28;20429;-74
2021/04/18 10:00:59;;;;;;;53.43;23.53;;;9.00;97.30;;;;;;5013078;28;20457;-74
2021/04/18 10:03:38;;;;;;;56.90;25.90;;;9.00;97.30;;;;;;5035088;28;20426;-75
2021/04/18 10:06:04;;;;;;;54.70;24.00;;;9.00;97.30;;;;;;5050584;28;20418;-74
2021/04/18 10:08:36;;;;;;;52.13;25.10;;;9.00;97.30;;;;;;5033297;28;20937;-74
2021/04/18 10:11:08;;;;;;;57.47;24.13;;;9.00;97.30;;;;;;5051035;28;20485;-74
2021/04/18 10:13:42;;;;;;;50.40;22.47;;;9.00;97.30;;;;;;5049525;28;20441;-74
2021/04/18 10:16:10;;;;;;;46.03;20.80;;;9.00;97.30;;;;;;5031611;28;20422;-75
2021/04/18 10:18:37;;;;;;;47.70;22.20;;;9.00;97.30;;;;;;5051140;28;20809;-74
2021/04/18 10:21:20;;;;;;;41.73;19.53;;;9.10;97.30;;;;;;5025428;28;20481;-74
2021/04/18 10:23:47;;;;;;;39.20;18.67;;;9.00;97.30;;;;;;5017777;28;20992;-73
2021/04/18 10:26:20;;;;;;;40.50;18.60;;;9.00;97.30;;;;;;5050384;28;20434;-74
2021/04/18 10:28:47;;;;;;;38.90;18.40;;;9.00;97.30;;;;;;5023402;28;20455;-74
2021/04/18 10:31:22;;;;;;;29.60;16.17;;;9.00;97.30;;;;;;5029606;28;20435;-75
2021/04/18 10:33:48;;;;;;;34.97;18.03;;;9.00;97.30;;;;;;5045693;28;20429;-74
2021/04/18 10:36:15;;;;;;;37.67;16.60;;;9.00;97.30;;;;;;5052385;28;20414;-75
2021/04/18 10:38:41;;;;;;;37.07;16.40;;;9.00;97.30;;;;;;5050707;28;20560;-74
2021/04/18 10:41:08;;;;;;;40.53;17.50;;;9.10;97.30;;;;;;5030800;28;20446;-74
2021/04/18 10:43:34;;;;;;;37.40;17.70;;;9.10;97.30;;;;;;5044927;28;20915;-74
2021/04/18 10:46:00;;;;;;;37.87;16.73;;;9.20;97.30;;;;;;5027033;28;20458;-74
2021/04/18 10:48:26;;;;;;;37.83;16.50;;;9.30;97.30;;;;;;5022499;28;20995;-74
2021/04/18 10:50:52;;;;;;;36.30;17.07;;;9.30;97.30;;;;;;5031988;28;20463;-75
2021/04/18 10:53:19;;;;;;;38.17;18.03;;;9.20;97.30;;;;;;5051141;28;20247;-74
2021/04/18 10:55:46;;;;;;;40.10;17.70;;;9.30;97.30;;;;;;5032766;28;20502;-74
2021/04/18 10:58:14;;;;;;;45.47;18.97;;;9.30;97.30;;;;;;5022913;28;20821;-75
2021/04/18 11:00:40;;;;;;;34.83;16.83;;;9.30;97.30;;;;;;5033651;28;20454;-74
2021/04/18 11:03:05;;;;;;;34.30;16.37;;;9.30;97.30;;;;;;5032320;28;20433;-74
2021/04/18 11:05:31;;;;;;;32.80;15.23;;;9.30;97.30;;;;;;5032558;28;20180;-75
2021/04/18 11:07:57;;;;;;;36.10;17.23;;;9.30;97.30;;;;;;5033664;28;20180;-75
2021/04/18 11:10:22;;;;;;;34.23;16.50;;;9.30;97.30;;;;;;5026280;28;20702;-75
2021/04/18 11:12:48;;;;;;;37.60;17.87;;;9.40;97.30;;;;;;5012883;28;20192;-76
2021/04/18 11:15:14;;;;;;;35.63;17.23;;;9.40;97.30;;;;;;5023567;28;20194;-75
2021/04/18 11:17:40;;;;;;;35.30;15.63;;;9.40;97.30;;;;;;5024358;28;20611;-75
2021/04/18 11:20:11;;;;;;;35.67;17.40;;;9.40;97.30;;;;;;5044795;28;20724;-75
2021/04/18 11:22:38;;;;;;;35.30;15.87;;;9.40;97.30;;;;;;5025095;28;20257;-77
2021/04/18 11:25:09;;;;;;;27.73;14.67;;;9.50;97.30;;;;;;5015687;28;20419;-75
2021/04/18 11:27:36;;;;;;;27.83;14.37;;;9.40;97.30;;;;;;5025480;28;20434;-75
2021/04/18 11:30:08;;;;;;;29.83;14.40;;;9.50;97.30;;;;;;5050396;28;20454;-75
2021/04/18 11:32:34;;;;;;;30.27;14.33;;;9.50;97.30;;;;;;5049692;28;20549;-76
2021/04/18 11:35:00;;;;;;;29.73;14.57;;;9.50;97.30;;;;;;5033271;28;20870;-75
2021/04/18 11:37:25;;;;;;;28.93;14.93;;;9.40;97.30;;;;;;5030440;28;20177;-77
2021/04/18 11:39:53;;;;;;;30.97;15.87;;;9.40;97.30;;;;;;5027209;28;20182;-75
2021/04/18 11:42:19;;;;;;;32.80;16.13;;;9.30;97.30;;;;;;5044092;28;20222;-76
2021/04/18 11:44:45;;;;;;;30.93;15.50;;;9.40;97.30;;;;;;5032257;28;20917;-76
2021/04/18 11:47:11;;;;;;;36.10;17.07;;;9.40;97.30;;;;;;5033318;28;20683;-76
2021/04/18 11:49:36;;;;;;;31.40;15.93;;;9.40;97.30;;;;;;5012632;28;20220;-76
2021/04/18 11:52:02;;;;;;;36.97;16.17;;;9.50;97.30;;;;;;5017289;28;20204;-75
2021/04/18 11:54:30;;;;;;;34.80;16.90;;;9.60;97.30;;;;;;5018222;28;20181;-76
2021/04/18 11:56:56;;;;;;;31.77;16.10;;;9.60;97.30;;;;;;5025883;28;20894;-76
2021/04/18 11:59:21;;;;;;;27.57;14.10;;;9.60;97.30;;;;;;5024477;28;20422;-76
2021/04/18 12:01:47;;;;;;;33.77;15.93;;;9.60;97.30;;;;;;5023980;28;21027;-76
2021/04/18 12:04:13;;;;;;;31.00;15.60;;;9.70;97.30;;;;;;5028584;28;20201;-76
2021/04/18 12:06:39;;;;;;;28.73;14.60;;;9.70;97.30;;;;;;5026621;28;20176;-77
2021/04/18 12:09:06;;;;;;;24.53;12.47;;;9.80;97.30;;;;;;5028921;28;20516;-75
2021/04/18 12:11:33;;;;;;;24.17;13.17;;;9.90;97.30;;;;;;5027423;28;20445;-76
2021/04/18 12:14:00;;;;;;;25.83;13.20;;;9.90;97.30;;;;;;5025037;28;20498;-76
2021/04/18 12:16:28;;;;;;;21.30;11.33;;;9.90;97.30;;;;;;5041374;28;20452;-75
2021/04/18 12:18:54;;;;;;;25.03;12.13;;;9.90;97.30;;;;;;5056335;28;20501;-73
2021/04/18 12:21:20;;;;;;;27.70;13.20;;;9.90;97.30;;;;;;5038245;28;20881;-75
2021/04/18 12:23:46;;;;;;;31.60;16.60;;;9.90;97.30;;;;;;5049074;28;20221;-74
2021/04/18 12:26:11;;;;;;;33.73;16.80;;;9.90;97.30;;;;;;5036488;28;20265;-74
2021/04/18 12:28:37;;;;;;;30.33;16.07;;;9.70;97.30;;;;;;5035479;28;20262;-74
2021/04/18 12:31:03;;;;;;;36.17;17.60;;;9.60;97.30;;;;;;5030004;28;20299;-73
2021/04/18 12:33:29;;;;;;;32.60;17.33;;;9.60;97.30;;;;;;5026677;28;20176;-74
2021/04/18 12:35:55;;;;;;;32.93;15.93;;;9.60;97.30;;;;;;5040145;28;20171;-74
2021/04/18 12:38:21;;;;;;;32.17;17.00;;;9.70;97.30;;;;;;5025962;28;20172;-74
2021/04/18 12:40:47;;;;;;;32.20;16.57;;;9.70;97.30;;;;;;5040763;28;20821;-75
2021/04/18 12:43:12;;;;;;;30.83;16.00;;;9.80;97.30;;;;;;5022888;28;20226;-75
2021/04/18 12:45:38;;;;;;;26.93;15.23;;;9.80;97.30;;;;;;5048446;28;20165;-75
2021/04/18 12:48:04;;;;;;;29.87;16.13;;;9.80;97.30;;;;;;5022229;28;20638;-74
2021/04/18 12:50:30;;;;;;;31.67;16.17;;;9.80;97.30;;;;;;5026074;28;20199;-73
2021/04/18 12:52:56;;;;;;;33.50;16.77;;;10.00;97.30;;;;;;5040721;28;20410;-73
2021/04/18 12:55:22;;;;;;;27.43;13.87;;;10.20;97.30;;;;;;5015825;28;20176;-73
2021/04/18 12:57:51;;;;;;;24.13;13.30;;;10.30;97.30;;;;;;5025987;28;20175;-75
2021/04/18 13:00:17;;;;;;;24.87;13.43;;;10.30;97.30;;;;;;5034935;28;20178;-74
2021/04/18 13:02:43;;;;;;;21.90;12.80;;;10.30;97.30;;;;;;5053923;28;20909;-74
2021/04/18 13:05:09;;;;;;;25.50;13.77;;;10.10;97.30;;;;;;5052729;28;20403;-74
2021/04/18 13:07:36;;;;;;;30.03;14.87;;;10.00;97.30;;;;;;5053245;28;20175;-74
2021/04/18 13:10:10;;;;;;;27.20;14.00;;;9.90;97.30;;;;;;5035730;28;20831;-74
2021/04/18 13:12:37;;;;;;;21.70;12.27;;;9.80;97.30;;;;;;5035213;28;20480;-74
2021/04/18 13:15:07;;;;;;;19.30;11.50;;;9.70;97.30;;;;;;5053009;28;20457;-75
2021/04/18 13:17:33;;;;;;;23.67;12.30;;;9.60;97.30;;;;;;5025056;28;20589;-73
2021/04/18 13:19:58;;;;;;;21.40;11.30;;;9.50;97.30;;;;;;5031888;28;20980;-74
2021/04/18 13:22:24;;;;;;;21.33;10.90;;;9.50;97.30;;;;;;5052398;28;20506;-73
2021/04/18 13:24:50;;;;;;;24.60;12.50;;;9.50;97.30;;;;;;5035450;28;20414;-74
2021/04/18 13:27:16;;;;;;;19.10;10.90;;;9.50;97.30;;;;;;5034596;28;20286;-74
2021/04/18 13:29:43;;;;;;;24.43;13.17;;;9.50;97.30;;;;;;5034604;28;20207;-73
2021/04/18 13:32:10;;;;;;;23.13;12.00;;;9.50;97.30;;;;;;5034904;28;20200;-72